sensor_id;sensor_type;location;lat;lon;timestamp;P1;durP1;ratioP1;P2;durP2;ratioP2
6280;SDS011;3173;48.204;11.612;2022-12-08T00:00:24;18.63;;;10.50;;
6280;SDS011;3173;48.204;11.612;2022-12-08T00:02:51;18.23;;;10.50;;
6280;SDS011;3173;48.204;11.612;2022-12-08T00:05:17;18.80;;;10.33;;
6280;SDS011;3173;48.204;11.612;2022-12-08T00:08:01;18.77;;;10.43;;
6280;SDS011;3173;48.204;11.612;2022-12-08T00:10:46;18.70;;;10.30;;
6280;SDS011;3173;48.204;11.612;2022-12-08T00:13:12;17.87;;;10.50;;
6280;SDS011;3173;48.204;11.612;2022-12-08T00:15:38;19.47;;;10.87;;
6280;SDS011;3173;48.204;11.612;2022-12-08T00:18:04;20.20;;;10.90;;
6280;SDS011;3173;48.204;11.612;2022-12-08T00:20:31;17.60;;;10.80;;
6280;SDS011;3173;48.204;11.612;2022-12-08T00:22:57;19.43;;;10.90;;
6280;SDS011;3173;48.204;11.612;2022-12-08T00:25:23;20.13;;;10.97;;
6280;SDS011;3173;48.204;11.612;2022-12-08T00:27:49;20.57;;;10.47;;
6280;SDS011;3173;48.204;11.612;2022-12-08T00:30:15;18.30;;;10.20;;
6280;SDS011;3173;48.204;11.612;2022-12-08T00:32:41;19.70;;;11.33;;
6280;SDS011;3173;48.204;11.612;2022-12-08T00:35:07;20.00;;;11.20;;
6280;SDS011;3173;48.204;11.612;2022-12-08T00:37:33;17.60;;;9.63;;
6280;SDS011;3173;48.204;11.612;2022-12-08T00:39:59;17.10;;;9.00;;
6280;SDS011;3173;48.204;11.612;2022-12-08T00:42:26;17.20;;;10.03;;
6280;SDS011;3173;48.204;11.612;2022-12-08T00:44:52;18.50;;;10.30;;
6280;SDS011;3173;48.204;11.612;2022-12-08T00:47:18;20.57;;;10.77;;
6280;SDS011;3173;48.204;11.612;2022-12-08T00:49:44;22.40;;;10.83;;
6280;SDS011;3173;48.204;11.612;2022-12-08T00:52:10;20.83;;;10.40;;
6280;SDS011;3173;48.204;11.612;2022-12-08T00:54:37;21.77;;;11.37;;
6280;SDS011;3173;48.204;11.612;2022-12-08T00:57:03;19.70;;;10.60;;
6280;SDS011;3173;48.204;11.612;2022-12-08T00:59:29;19.33;;;10.00;;
6280;SDS011;3173;48.204;11.612;2022-12-08T01:01:55;15.83;;;9.53;;
6280;SDS011;3173;48.204;11.612;2022-12-08T01:04:21;16.43;;;9.80;;
6280;SDS011;3173;48.204;11.612;2022-12-08T01:06:47;17.63;;;10.30;;
6280;SDS011;3173;48.204;11.612;2022-12-08T01:09:13;19.63;;;10.93;;
6280;SDS011;3173;48.204;11.612;2022-12-08T01:11:40;19.23;;;11.63;;
6280;SDS011;3173;48.204;11.612;2022-12-08T01:14:06;16.40;;;10.67;;
6280;SDS011;3173;48.204;11.612;2022-12-08T01:16:33;18.30;;;11.30;;
6280;SDS011;3173;48.204;11.612;2022-12-08T01:19:00;20.47;;;11.53;;
6280;SDS011;3173;48.204;11.612;2022-12-08T01:21:26;19.07;;;10.57;;
6280;SDS011;3173;48.204;11.612;2022-12-08T01:23:53;19.10;;;11.00;;
6280;SDS011;3173;48.204;11.612;2022-12-08T01:26:19;16.73;;;10.20;;
6280;SDS011;3173;48.204;11.612;2022-12-08T01:28:45;19.00;;;10.50;;
6280;SDS011;3173;48.204;11.612;2022-12-08T01:31:13;21.77;;;9.47;;
6280;SDS011;3173;48.204;11.612;2022-12-08T01:33:40;16.57;;;10.60;;
6280;SDS011;3173;48.204;11.612;2022-12-08T01:36:07;17.30;;;9.97;;
6280;SDS011;3173;48.204;11.612;2022-12-08T01:38:33;17.93;;;9.40;;
6280;SDS011;3173;48.204;11.612;2022-12-08T01:40:59;19.23;;;10.77;;
6280;SDS011;3173;48.204;11.612;2022-12-08T01:43:42;19.70;;;11.30;;
6280;SDS011;3173;48.204;11.612;2022-12-08T01:46:10;17.60;;;10.20;;
6280;SDS011;3173;48.204;11.612;2022-12-08T01:48:36;18.43;;;10.20;;
6280;SDS011;3173;48.204;11.612;2022-12-08T01:51:02;18.57;;;10.53;;
6280;SDS011;3173;48.204;11.612;2022-12-08T01:53:30;17.20;;;10.57;;
6280;SDS011;3173;48.204;11.612;2022-12-08T01:55:58;19.53;;;11.00;;
6280;SDS011;3173;48.204;11.612;2022-12-08T01:58:29;18.87;;;9.60;;
6280;SDS011;3173;48.204;11.612;2022-12-08T02:00:57;21.37;;;11.03;;
6280;SDS011;3173;48.204;11.612;2022-12-08T02:03:27;18.27;;;10.53;;
6280;SDS011;3173;48.204;11.612;2022-12-08T02:05:54;17.30;;;9.57;;
6280;SDS011;3173;48.204;11.612;2022-12-08T02:08:20;19.37;;;10.60;;
6280;SDS011;3173;48.204;11.612;2022-12-08T02:10:48;20.03;;;10.27;;
6280;SDS011;3173;48.204;11.612;2022-12-08T02:13:15;19.67;;;10.43;;
6280;SDS011;3173;48.204;11.612;2022-12-08T02:15:48;15.43;;;10.03;;
6280;SDS011;3173;48.204;11.612;2022-12-08T02:20:55;15.63;;;9.67;;
6280;SDS011;3173;48.204;11.612;2022-12-08T02:23:26;16.27;;;10.67;;
6280;SDS011;3173;48.204;11.612;2022-12-08T02:29:21;18.40;;;10.90;;
6280;SDS011;3173;48.204;11.612;2022-12-08T02:31:26;17.53;;;9.60;;
6280;SDS011;3173;48.204;11.612;2022-12-08T02:34:03;16.07;;;10.03;;
6280;SDS011;3173;48.204;11.612;2022-12-08T02:36:38;19.53;;;10.07;;
6280;SDS011;3173;48.204;11.612;2022-12-08T02:41:40;17.27;;;10.60;;
6280;SDS011;3173;48.204;11.612;2022-12-08T02:44:23;16.33;;;9.50;;
6280;SDS011;3173;48.204;11.612;2022-12-08T02:47:11;20.43;;;10.20;;
6280;SDS011;3173;48.204;11.612;2022-12-08T02:49:38;14.67;;;8.90;;
6280;SDS011;3173;48.204;11.612;2022-12-08T02:54:42;19.53;;;11.13;;
6280;SDS011;3173;48.204;11.612;2022-12-08T02:57:13;18.27;;;9.20;;
6280;SDS011;3173;48.204;11.612;2022-12-08T03:09:48;16.50;;;8.80;;
6280;SDS011;3173;48.204;11.612;2022-12-08T03:14:45;20.37;;;11.10;;
6280;SDS011;3173;48.204;11.612;2022-12-08T03:17:11;16.33;;;10.03;;
6280;SDS011;3173;48.204;11.612;2022-12-08T03:19:38;18.40;;;10.03;;
6280;SDS011;3173;48.204;11.612;2022-12-08T03:22:07;19.80;;;11.50;;
6280;SDS011;3173;48.204;11.612;2022-12-08T03:24:35;17.57;;;9.87;;
6280;SDS011;3173;48.204;11.612;2022-12-08T03:27:02;17.97;;;9.73;;
6280;SDS011;3173;48.204;11.612;2022-12-08T03:29:29;19.23;;;11.03;;
6280;SDS011;3173;48.204;11.612;2022-12-08T03:31:57;17.87;;;10.17;;
6280;SDS011;3173;48.204;11.612;2022-12-08T03:34:25;17.40;;;9.53;;
6280;SDS011;3173;48.204;11.612;2022-12-08T03:36:52;17.43;;;10.87;;
6280;SDS011;3173;48.204;11.612;2022-12-08T03:39:18;16.77;;;9.43;;
6280;SDS011;3173;48.204;11.612;2022-12-08T03:41:44;17.07;;;10.13;;
6280;SDS011;3173;48.204;11.612;2022-12-08T03:44:11;18.43;;;10.20;;
6280;SDS011;3173;48.204;11.612;2022-12-08T03:46:37;17.57;;;10.20;;
6280;SDS011;3173;48.204;11.612;2022-12-08T03:49:03;16.27;;;9.43;;
6280;SDS011;3173;48.204;11.612;2022-12-08T03:51:30;20.70;;;10.60;;
6280;SDS011;3173;48.204;11.612;2022-12-08T03:53:56;17.07;;;9.90;;
6280;SDS011;3173;48.204;11.612;2022-12-08T03:56:26;21.30;;;11.87;;
6280;SDS011;3173;48.204;11.612;2022-12-08T03:58:52;17.83;;;9.53;;
6280;SDS011;3173;48.204;11.612;2022-12-08T04:01:18;22.40;;;11.10;;
6280;SDS011;3173;48.204;11.612;2022-12-08T04:03:44;19.50;;;11.20;;
6280;SDS011;3173;48.204;11.612;2022-12-08T04:06:11;18.20;;;10.50;;
6280;SDS011;3173;48.204;11.612;2022-12-08T04:08:37;17.90;;;9.57;;
6280;SDS011;3173;48.204;11.612;2022-12-08T04:11:03;17.27;;;8.87;;
6280;SDS011;3173;48.204;11.612;2022-12-08T04:13:31;17.73;;;10.17;;
6280;SDS011;3173;48.204;11.612;2022-12-08T04:15:57;17.80;;;10.43;;
6280;SDS011;3173;48.204;11.612;2022-12-08T04:18:23;18.20;;;10.20;;
6280;SDS011;3173;48.204;11.612;2022-12-08T04:20:49;24.30;;;10.90;;
6280;SDS011;3173;48.204;11.612;2022-12-08T04:23:16;20.97;;;10.43;;
6280;SDS011;3173;48.204;11.612;2022-12-08T04:25:42;18.63;;;10.53;;
6280;SDS011;3173;48.204;11.612;2022-12-08T04:28:08;17.40;;;10.20;;
6280;SDS011;3173;48.204;11.612;2022-12-08T04:30:34;17.90;;;9.53;;
6280;SDS011;3173;48.204;11.612;2022-12-08T04:33:00;17.27;;;9.77;;
6280;SDS011;3173;48.204;11.612;2022-12-08T04:35:27;16.63;;;10.07;;
6280;SDS011;3173;48.204;11.612;2022-12-08T04:37:53;22.00;;;10.50;;
6280;SDS011;3173;48.204;11.612;2022-12-08T04:40:19;19.83;;;10.40;;
6280;SDS011;3173;48.204;11.612;2022-12-08T04:42:45;18.93;;;9.47;;
6280;SDS011;3173;48.204;11.612;2022-12-08T04:45:11;20.23;;;10.60;;
6280;SDS011;3173;48.204;11.612;2022-12-08T04:47:37;19.63;;;10.23;;
6280;SDS011;3173;48.204;11.612;2022-12-08T04:50:04;18.07;;;10.37;;
6280;SDS011;3173;48.204;11.612;2022-12-08T04:52:30;23.50;;;11.83;;
6280;SDS011;3173;48.204;11.612;2022-12-08T04:54:56;19.40;;;10.20;;
6280;SDS011;3173;48.204;11.612;2022-12-08T04:57:22;19.33;;;10.30;;
6280;SDS011;3173;48.204;11.612;2022-12-08T04:59:49;18.13;;;10.70;;
6280;SDS011;3173;48.204;11.612;2022-12-08T05:02:15;18.27;;;10.20;;
6280;SDS011;3173;48.204;11.612;2022-12-08T05:04:41;21.07;;;10.60;;
6280;SDS011;3173;48.204;11.612;2022-12-08T05:07:07;16.67;;;9.83;;
6280;SDS011;3173;48.204;11.612;2022-12-08T05:09:33;18.40;;;10.70;;
6280;SDS011;3173;48.204;11.612;2022-12-08T05:11:59;19.93;;;10.23;;
6280;SDS011;3173;48.204;11.612;2022-12-08T05:14:25;18.63;;;10.07;;
6280;SDS011;3173;48.204;11.612;2022-12-08T05:16:52;16.30;;;9.67;;
6280;SDS011;3173;48.204;11.612;2022-12-08T05:19:18;18.30;;;10.47;;
6280;SDS011;3173;48.204;11.612;2022-12-08T05:21:44;18.97;;;10.40;;
6280;SDS011;3173;48.204;11.612;2022-12-08T05:24:10;19.97;;;10.90;;
6280;SDS011;3173;48.204;11.612;2022-12-08T05:26:36;21.23;;;10.53;;
6280;SDS011;3173;48.204;11.612;2022-12-08T05:29:02;18.97;;;10.27;;
6280;SDS011;3173;48.204;11.612;2022-12-08T05:31:28;21.77;;;10.37;;
6280;SDS011;3173;48.204;11.612;2022-12-08T05:33:54;16.60;;;9.40;;
6280;SDS011;3173;48.204;11.612;2022-12-08T05:36:21;18.97;;;9.40;;
6280;SDS011;3173;48.204;11.612;2022-12-08T05:38:47;20.23;;;10.67;;
6280;SDS011;3173;48.204;11.612;2022-12-08T05:41:17;20.47;;;10.37;;
6280;SDS011;3173;48.204;11.612;2022-12-08T05:43:43;18.87;;;10.60;;
6280;SDS011;3173;48.204;11.612;2022-12-08T05:46:10;21.73;;;10.47;;
6280;SDS011;3173;48.204;11.612;2022-12-08T05:48:36;25.17;;;11.40;;
6280;SDS011;3173;48.204;11.612;2022-12-08T05:51:03;19.67;;;11.50;;
6280;SDS011;3173;48.204;11.612;2022-12-08T05:53:29;20.10;;;11.23;;
6280;SDS011;3173;48.204;11.612;2022-12-08T05:55:55;22.80;;;11.87;;
6280;SDS011;3173;48.204;11.612;2022-12-08T05:58:21;19.80;;;10.63;;
6280;SDS011;3173;48.204;11.612;2022-12-08T06:00:49;18.23;;;10.63;;
6280;SDS011;3173;48.204;11.612;2022-12-08T06:03:16;21.50;;;12.27;;
6280;SDS011;3173;48.204;11.612;2022-12-08T06:05:43;19.93;;;12.30;;
6280;SDS011;3173;48.204;11.612;2022-12-08T06:08:10;18.40;;;11.20;;
6280;SDS011;3173;48.204;11.612;2022-12-08T06:10:37;19.53;;;9.57;;
6280;SDS011;3173;48.204;11.612;2022-12-08T06:13:03;22.40;;;9.83;;
6280;SDS011;3173;48.204;11.612;2022-12-08T06:15:29;22.40;;;11.93;;
6280;SDS011;3173;48.204;11.612;2022-12-08T06:17:55;18.43;;;10.73;;
6280;SDS011;3173;48.204;11.612;2022-12-08T06:20:21;21.07;;;10.53;;
6280;SDS011;3173;48.204;11.612;2022-12-08T06:22:47;22.47;;;11.73;;
6280;SDS011;3173;48.204;11.612;2022-12-08T06:25:13;18.13;;;11.30;;
6280;SDS011;3173;48.204;11.612;2022-12-08T06:27:38;19.40;;;11.50;;
6280;SDS011;3173;48.204;11.612;2022-12-08T06:30:05;20.27;;;11.27;;
6280;SDS011;3173;48.204;11.612;2022-12-08T06:32:31;21.73;;;10.10;;
6280;SDS011;3173;48.204;11.612;2022-12-08T06:34:57;20.20;;;10.93;;
6280;SDS011;3173;48.204;11.612;2022-12-08T06:37:23;21.03;;;11.73;;
6280;SDS011;3173;48.204;11.612;2022-12-08T06:39:49;19.13;;;11.90;;
6280;SDS011;3173;48.204;11.612;2022-12-08T06:42:15;20.77;;;10.60;;
6280;SDS011;3173;48.204;11.612;2022-12-08T06:45:00;21.70;;;9.90;;
6280;SDS011;3173;48.204;11.612;2022-12-08T06:47:27;22.90;;;10.33;;
6280;SDS011;3173;48.204;11.612;2022-12-08T06:49:53;19.43;;;10.97;;
6280;SDS011;3173;48.204;11.612;2022-12-08T06:52:19;24.17;;;11.27;;
6280;SDS011;3173;48.204;11.612;2022-12-08T06:54:45;18.73;;;10.70;;
6280;SDS011;3173;48.204;11.612;2022-12-08T06:57:11;21.53;;;11.40;;
6280;SDS011;3173;48.204;11.612;2022-12-08T06:59:37;20.70;;;11.57;;
6280;SDS011;3173;48.204;11.612;2022-12-08T07:02:04;21.27;;;12.80;;
6280;SDS011;3173;48.204;11.612;2022-12-08T07:04:30;18.53;;;11.23;;
6280;SDS011;3173;48.204;11.612;2022-12-08T07:06:56;25.13;;;11.87;;
6280;SDS011;3173;48.204;11.612;2022-12-08T07:09:22;22.57;;;11.70;;
6280;SDS011;3173;48.204;11.612;2022-12-08T07:11:48;18.80;;;10.20;;
6280;SDS011;3173;48.204;11.612;2022-12-08T07:14:14;18.37;;;10.23;;
6280;SDS011;3173;48.204;11.612;2022-12-08T07:16:40;20.60;;;10.10;;
6280;SDS011;3173;48.204;11.612;2022-12-08T07:19:06;21.70;;;11.23;;
6280;SDS011;3173;48.204;11.612;2022-12-08T07:21:32;23.93;;;11.40;;
6280;SDS011;3173;48.204;11.612;2022-12-08T07:23:58;25.83;;;14.37;;
6280;SDS011;3173;48.204;11.612;2022-12-08T07:26:24;23.17;;;12.07;;
6280;SDS011;3173;48.204;11.612;2022-12-08T07:28:50;23.17;;;12.80;;
6280;SDS011;3173;48.204;11.612;2022-12-08T07:31:18;22.70;;;11.10;;
6280;SDS011;3173;48.204;11.612;2022-12-08T07:33:44;20.03;;;10.83;;
6280;SDS011;3173;48.204;11.612;2022-12-08T07:36:11;18.70;;;11.17;;
6280;SDS011;3173;48.204;11.612;2022-12-08T07:38:37;19.20;;;10.47;;
6280;SDS011;3173;48.204;11.612;2022-12-08T07:41:03;22.23;;;11.57;;
6280;SDS011;3173;48.204;11.612;2022-12-08T07:43:29;21.17;;;11.73;;
6280;SDS011;3173;48.204;11.612;2022-12-08T07:45:55;19.27;;;10.67;;
6280;SDS011;3173;48.204;11.612;2022-12-08T07:48:21;20.17;;;11.47;;
6280;SDS011;3173;48.204;11.612;2022-12-08T07:50:47;23.10;;;12.67;;
6280;SDS011;3173;48.204;11.612;2022-12-08T07:53:13;19.93;;;10.90;;
6280;SDS011;3173;48.204;11.612;2022-12-08T07:55:42;21.60;;;11.97;;
6280;SDS011;3173;48.204;11.612;2022-12-08T07:58:09;19.67;;;10.57;;
6280;SDS011;3173;48.204;11.612;2022-12-08T08:00:35;23.30;;;11.67;;
6280;SDS011;3173;48.204;11.612;2022-12-08T08:03:01;22.13;;;11.53;;
6280;SDS011;3173;48.204;11.612;2022-12-08T08:05:27;26.90;;;12.00;;
6280;SDS011;3173;48.204;11.612;2022-12-08T08:07:53;19.83;;;11.30;;
6280;SDS011;3173;48.204;11.612;2022-12-08T08:10:19;23.43;;;11.20;;
6280;SDS011;3173;48.204;11.612;2022-12-08T08:12:45;19.43;;;11.60;;
6280;SDS011;3173;48.204;11.612;2022-12-08T08:15:11;21.10;;;12.23;;
6280;SDS011;3173;48.204;11.612;2022-12-08T08:17:37;19.63;;;10.53;;
6280;SDS011;3173;48.204;11.612;2022-12-08T08:20:04;16.63;;;10.57;;
6280;SDS011;3173;48.204;11.612;2022-12-08T08:22:31;21.03;;;10.27;;
6280;SDS011;3173;48.204;11.612;2022-12-08T08:24:57;20.87;;;11.00;;
6280;SDS011;3173;48.204;11.612;2022-12-08T08:27:23;20.67;;;10.93;;
6280;SDS011;3173;48.204;11.612;2022-12-08T08:29:50;19.37;;;10.83;;
6280;SDS011;3173;48.204;11.612;2022-12-08T08:32:16;19.40;;;11.87;;
6280;SDS011;3173;48.204;11.612;2022-12-08T08:34:42;21.40;;;11.93;;
6280;SDS011;3173;48.204;11.612;2022-12-08T08:37:08;19.47;;;10.80;;
6280;SDS011;3173;48.204;11.612;2022-12-08T08:39:34;19.30;;;11.00;;
6280;SDS011;3173;48.204;11.612;2022-12-08T08:42:00;19.23;;;11.07;;
6280;SDS011;3173;48.204;11.612;2022-12-08T08:44:26;23.73;;;12.77;;
6280;SDS011;3173;48.204;11.612;2022-12-08T08:46:52;21.07;;;11.37;;
6280;SDS011;3173;48.204;11.612;2022-12-08T08:49:18;19.60;;;11.40;;
6280;SDS011;3173;48.204;11.612;2022-12-08T08:51:45;18.30;;;11.83;;
6280;SDS011;3173;48.204;11.612;2022-12-08T08:54:11;19.57;;;12.57;;
6280;SDS011;3173;48.204;11.612;2022-12-08T08:56:37;21.23;;;10.77;;
6280;SDS011;3173;48.204;11.612;2022-12-08T08:59:03;22.00;;;11.97;;
6280;SDS011;3173;48.204;11.612;2022-12-08T09:01:29;18.20;;;11.40;;
6280;SDS011;3173;48.204;11.612;2022-12-08T09:03:55;20.10;;;11.10;;
6280;SDS011;3173;48.204;11.612;2022-12-08T09:06:21;17.83;;;11.47;;
6280;SDS011;3173;48.204;11.612;2022-12-08T09:08:47;19.37;;;11.40;;
6280;SDS011;3173;48.204;11.612;2022-12-08T09:11:13;20.27;;;11.37;;
6280;SDS011;3173;48.204;11.612;2022-12-08T09:13:39;23.53;;;12.07;;
6280;SDS011;3173;48.204;11.612;2022-12-08T09:16:06;17.73;;;10.90;;
6280;SDS011;3173;48.204;11.612;2022-12-08T09:18:32;17.83;;;11.00;;
6280;SDS011;3173;48.204;11.612;2022-12-08T09:21:05;20.03;;;11.67;;
6280;SDS011;3173;48.204;11.612;2022-12-08T09:23:32;20.10;;;11.80;;
6280;SDS011;3173;48.204;11.612;2022-12-08T09:25:58;23.70;;;11.70;;
6280;SDS011;3173;48.204;11.612;2022-12-08T09:28:24;23.40;;;12.37;;
6280;SDS011;3173;48.204;11.612;2022-12-08T09:30:50;22.07;;;11.50;;
6280;SDS011;3173;48.204;11.612;2022-12-08T09:33:16;21.57;;;11.07;;
6280;SDS011;3173;48.204;11.612;2022-12-08T09:35:42;21.10;;;12.30;;
6280;SDS011;3173;48.204;11.612;2022-12-08T09:38:08;24.50;;;12.23;;
6280;SDS011;3173;48.204;11.612;2022-12-08T09:40:36;21.83;;;11.93;;
6280;SDS011;3173;48.204;11.612;2022-12-08T09:43:16;20.37;;;12.63;;
6280;SDS011;3173;48.204;11.612;2022-12-08T09:45:44;20.97;;;12.97;;
6280;SDS011;3173;48.204;11.612;2022-12-08T09:50:47;25.60;;;15.30;;
6280;SDS011;3173;48.204;11.612;2022-12-08T09:53:18;20.97;;;13.50;;
6280;SDS011;3173;48.204;11.612;2022-12-08T09:55:48;24.83;;;15.17;;
6280;SDS011;3173;48.204;11.612;2022-12-08T09:58:16;26.60;;;14.97;;
6280;SDS011;3173;48.204;11.612;2022-12-08T10:00:44;28.83;;;16.13;;
6280;SDS011;3173;48.204;11.612;2022-12-08T10:03:11;32.23;;;15.60;;
6280;SDS011;3173;48.204;11.612;2022-12-08T10:05:39;34.30;;;15.83;;
6280;SDS011;3173;48.204;11.612;2022-12-08T10:08:07;27.33;;;14.20;;
6280;SDS011;3173;48.204;11.612;2022-12-08T10:13:20;25.90;;;13.87;;
6280;SDS011;3173;48.204;11.612;2022-12-08T10:18:28;22.67;;;13.70;;
6280;SDS011;3173;48.204;11.612;2022-12-08T10:20:56;22.00;;;13.60;;
6280;SDS011;3173;48.204;11.612;2022-12-08T10:23:34;23.10;;;13.33;;
6280;SDS011;3173;48.204;11.612;2022-12-08T10:26:02;20.67;;;12.73;;
6280;SDS011;3173;48.204;11.612;2022-12-08T10:28:28;27.40;;;13.20;;
6280;SDS011;3173;48.204;11.612;2022-12-08T10:30:55;22.43;;;13.70;;
6280;SDS011;3173;48.204;11.612;2022-12-08T10:33:22;23.13;;;13.37;;
6280;SDS011;3173;48.204;11.612;2022-12-08T10:35:49;21.43;;;13.13;;
6280;SDS011;3173;48.204;11.612;2022-12-08T10:38:17;21.83;;;13.27;;
6280;SDS011;3173;48.204;11.612;2022-12-08T10:40:43;24.83;;;14.33;;
6280;SDS011;3173;48.204;11.612;2022-12-08T10:43:13;29.17;;;13.70;;
6280;SDS011;3173;48.204;11.612;2022-12-08T10:45:42;21.10;;;13.40;;
6280;SDS011;3173;48.204;11.612;2022-12-08T10:50:41;26.83;;;14.10;;
6280;SDS011;3173;48.204;11.612;2022-12-08T10:55:39;25.67;;;14.80;;
6280;SDS011;3173;48.204;11.612;2022-12-08T10:58:21;25.00;;;14.20;;
6280;SDS011;3173;48.204;11.612;2022-12-08T11:00:49;26.07;;;14.30;;
6280;SDS011;3173;48.204;11.612;2022-12-08T11:03:21;25.30;;;14.40;;
6280;SDS011;3173;48.204;11.612;2022-12-08T11:05:49;26.30;;;14.43;;
6280;SDS011;3173;48.204;11.612;2022-12-08T11:08:15;27.30;;;13.67;;
6280;SDS011;3173;48.204;11.612;2022-12-08T11:10:42;24.27;;;13.40;;
6280;SDS011;3173;48.204;11.612;2022-12-08T11:13:12;26.63;;;13.70;;
6280;SDS011;3173;48.204;11.612;2022-12-08T11:15:40;24.40;;;14.33;;
6280;SDS011;3173;48.204;11.612;2022-12-08T11:18:28;23.10;;;14.13;;
6280;SDS011;3173;48.204;11.612;2022-12-08T11:20:55;23.33;;;13.70;;
6280;SDS011;3173;48.204;11.612;2022-12-08T11:23:23;23.67;;;12.90;;
6280;SDS011;3173;48.204;11.612;2022-12-08T11:25:49;25.10;;;14.27;;
6280;SDS011;3173;48.204;11.612;2022-12-08T11:28:18;25.47;;;14.87;;
6280;SDS011;3173;48.204;11.612;2022-12-08T11:30:46;22.60;;;13.20;;
6280;SDS011;3173;48.204;11.612;2022-12-08T11:33:21;23.10;;;12.63;;
6280;SDS011;3173;48.204;11.612;2022-12-08T11:36:04;22.23;;;12.40;;
6280;SDS011;3173;48.204;11.612;2022-12-08T11:38:33;19.57;;;11.43;;
6280;SDS011;3173;48.204;11.612;2022-12-08T11:41:03;25.00;;;11.93;;
6280;SDS011;3173;48.204;11.612;2022-12-08T11:46:00;24.33;;;13.57;;
6280;SDS011;3173;48.204;11.612;2022-12-08T11:48:38;23.33;;;14.83;;
6280;SDS011;3173;48.204;11.612;2022-12-08T11:51:29;26.47;;;13.50;;
6280;SDS011;3173;48.204;11.612;2022-12-08T11:56:25;22.00;;;13.70;;
6280;SDS011;3173;48.204;11.612;2022-12-08T11:58:59;23.57;;;14.30;;
6280;SDS011;3173;48.204;11.612;2022-12-08T12:01:26;34.43;;;22.80;;
6280;SDS011;3173;48.204;11.612;2022-12-08T12:04:02;23.87;;;15.10;;
6280;SDS011;3173;48.204;11.612;2022-12-08T12:19:54;27.43;;;15.70;;
6280;SDS011;3173;48.204;11.612;2022-12-08T12:22:22;26.00;;;14.37;;
6280;SDS011;3173;48.204;11.612;2022-12-08T12:24:49;22.27;;;14.20;;
6280;SDS011;3173;48.204;11.612;2022-12-08T12:27:23;25.13;;;15.80;;
6280;SDS011;3173;48.204;11.612;2022-12-08T12:29:54;33.10;;;23.23;;
6280;SDS011;3173;48.204;11.612;2022-12-08T12:32:23;24.93;;;17.07;;
6280;SDS011;3173;48.204;11.612;2022-12-08T12:34:50;24.50;;;14.73;;
6280;SDS011;3173;48.204;11.612;2022-12-08T12:37:25;22.70;;;14.10;;
6280;SDS011;3173;48.204;11.612;2022-12-08T12:39:58;22.70;;;13.30;;
6280;SDS011;3173;48.204;11.612;2022-12-08T12:42:36;22.30;;;13.40;;
6280;SDS011;3173;48.204;11.612;2022-12-08T12:45:10;26.53;;;14.17;;
6280;SDS011;3173;48.204;11.612;2022-12-08T12:50:40;24.10;;;15.80;;
6280;SDS011;3173;48.204;11.612;2022-12-08T12:58:19;21.80;;;12.10;;
6280;SDS011;3173;48.204;11.612;2022-12-08T13:00:45;21.30;;;13.67;;
6280;SDS011;3173;48.204;11.612;2022-12-08T13:03:13;23.20;;;14.07;;
6280;SDS011;3173;48.204;11.612;2022-12-08T13:05:50;38.90;;;26.20;;
6280;SDS011;3173;48.204;11.612;2022-12-08T13:08:22;27.07;;;18.17;;
6280;SDS011;3173;48.204;11.612;2022-12-08T13:10:57;22.83;;;13.20;;
6280;SDS011;3173;48.204;11.612;2022-12-08T13:13:25;19.17;;;11.77;;
6280;SDS011;3173;48.204;11.612;2022-12-08T13:15:52;22.90;;;14.10;;
6280;SDS011;3173;48.204;11.612;2022-12-08T13:18:40;19.67;;;11.97;;
6280;SDS011;3173;48.204;11.612;2022-12-08T13:37:16;19.30;;;12.53;;
6280;SDS011;3173;48.204;11.612;2022-12-08T13:39:46;22.50;;;12.73;;
6280;SDS011;3173;48.204;11.612;2022-12-08T13:44:46;28.00;;;15.30;;
6280;SDS011;3173;48.204;11.612;2022-12-08T13:47:15;23.20;;;14.10;;
6280;SDS011;3173;48.204;11.612;2022-12-08T13:49:48;25.30;;;13.87;;
6280;SDS011;3173;48.204;11.612;2022-12-08T13:52:19;23.07;;;14.20;;
6280;SDS011;3173;48.204;11.612;2022-12-08T13:54:46;24.87;;;14.40;;
6280;SDS011;3173;48.204;11.612;2022-12-08T13:57:23;24.43;;;13.43;;
6280;SDS011;3173;48.204;11.612;2022-12-08T13:59:50;19.77;;;13.27;;
6280;SDS011;3173;48.204;11.612;2022-12-08T14:02:24;20.33;;;12.43;;
6280;SDS011;3173;48.204;11.612;2022-12-08T14:04:53;27.17;;;14.27;;
6280;SDS011;3173;48.204;11.612;2022-12-08T14:07:19;21.37;;;12.30;;
6280;SDS011;3173;48.204;11.612;2022-12-08T14:09:45;20.30;;;11.70;;
6280;SDS011;3173;48.204;11.612;2022-12-08T14:12:17;22.43;;;12.47;;
6280;SDS011;3173;48.204;11.612;2022-12-08T14:14:45;22.57;;;12.90;;
6280;SDS011;3173;48.204;11.612;2022-12-08T14:17:13;19.43;;;12.60;;
6280;SDS011;3173;48.204;11.612;2022-12-08T14:19:41;21.20;;;11.60;;
6280;SDS011;3173;48.204;11.612;2022-12-08T14:22:12;17.87;;;12.13;;
6280;SDS011;3173;48.204;11.612;2022-12-08T14:24:38;22.43;;;12.27;;
6280;SDS011;3173;48.204;11.612;2022-12-08T14:27:06;19.40;;;11.10;;
6280;SDS011;3173;48.204;11.612;2022-12-08T14:32:02;22.37;;;12.43;;
6280;SDS011;3173;48.204;11.612;2022-12-08T14:34:28;19.13;;;11.83;;
6280;SDS011;3173;48.204;11.612;2022-12-08T14:36:54;21.57;;;12.50;;
6280;SDS011;3173;48.204;11.612;2022-12-08T14:39:20;17.83;;;10.97;;
6280;SDS011;3173;48.204;11.612;2022-12-08T14:41:59;20.87;;;11.77;;
6280;SDS011;3173;48.204;11.612;2022-12-08T14:44:25;21.00;;;11.47;;
6280;SDS011;3173;48.204;11.612;2022-12-08T14:47:06;19.37;;;11.57;;
6280;SDS011;3173;48.204;11.612;2022-12-08T14:49:33;21.47;;;12.33;;
6280;SDS011;3173;48.204;11.612;2022-12-08T14:52:00;22.60;;;12.60;;
6280;SDS011;3173;48.204;11.612;2022-12-08T14:54:27;24.27;;;12.47;;
6280;SDS011;3173;48.204;11.612;2022-12-08T14:56:54;23.00;;;12.67;;
6280;SDS011;3173;48.204;11.612;2022-12-08T14:59:24;20.70;;;12.17;;
6280;SDS011;3173;48.204;11.612;2022-12-08T15:01:52;22.60;;;12.90;;
6280;SDS011;3173;48.204;11.612;2022-12-08T15:04:25;28.83;;;14.73;;
6280;SDS011;3173;48.204;11.612;2022-12-08T15:14:35;27.30;;;16.70;;
6280;SDS011;3173;48.204;11.612;2022-12-08T15:17:01;35.13;;;21.47;;
6280;SDS011;3173;48.204;11.612;2022-12-08T15:19:31;22.87;;;13.93;;
6280;SDS011;3173;48.204;11.612;2022-12-08T15:22:01;22.77;;;13.47;;
6280;SDS011;3173;48.204;11.612;2022-12-08T15:24:32;24.80;;;14.10;;
6280;SDS011;3173;48.204;11.612;2022-12-08T15:26:59;23.87;;;13.67;;
6280;SDS011;3173;48.204;11.612;2022-12-08T15:29:28;24.57;;;14.00;;
6280;SDS011;3173;48.204;11.612;2022-12-08T15:31:55;25.33;;;13.70;;
6280;SDS011;3173;48.204;11.612;2022-12-08T15:34:21;21.10;;;12.67;;
6280;SDS011;3173;48.204;11.612;2022-12-08T15:36:48;26.00;;;13.03;;
6280;SDS011;3173;48.204;11.612;2022-12-08T15:39:19;26.17;;;15.20;;
6280;SDS011;3173;48.204;11.612;2022-12-08T15:41:46;24.70;;;15.10;;
6280;SDS011;3173;48.204;11.612;2022-12-08T15:44:12;27.50;;;13.73;;
6280;SDS011;3173;48.204;11.612;2022-12-08T15:46:38;21.37;;;13.40;;
6280;SDS011;3173;48.204;11.612;2022-12-08T15:49:04;25.10;;;13.77;;
6280;SDS011;3173;48.204;11.612;2022-12-08T15:51:30;20.33;;;12.93;;
6280;SDS011;3173;48.204;11.612;2022-12-08T15:54:00;22.33;;;14.40;;
6280;SDS011;3173;48.204;11.612;2022-12-08T15:56:26;25.87;;;14.37;;
6280;SDS011;3173;48.204;11.612;2022-12-08T15:58:53;25.87;;;14.23;;
6280;SDS011;3173;48.204;11.612;2022-12-08T16:01:19;28.67;;;14.83;;
6280;SDS011;3173;48.204;11.612;2022-12-08T16:03:45;26.27;;;14.97;;
6280;SDS011;3173;48.204;11.612;2022-12-08T16:06:12;24.83;;;14.37;;
6280;SDS011;3173;48.204;11.612;2022-12-08T16:08:40;23.77;;;13.20;;
6280;SDS011;3173;48.204;11.612;2022-12-08T16:11:06;25.80;;;14.00;;